Time;durP1;ratioP1;P1;durP2;ratioP2;P2;SDS_P1;SDS_P2;PMS_P1;PMS_P2;Temp;Humidity;BMP_temperature;BMP_pressure;BME280_temperature;BME280_humidity;BME280_pressure;Samples;Min_cycle;Max_cycle;Signal;HPM_P1;HPM_P2
2021/01/23 00:01:28;;;;;;;19.83;8.07;;;5.30;99.90;;;;;;4960894;28;20775;-93
2021/01/23 00:03:54;;;;;;;16.43;9.40;;;5.40;99.90;;;;;;4976843;28;20187;-93
2021/01/23 00:06:20;;;;;;;10.67;8.77;;;5.50;99.90;;;;;;4976959;28;20179;-92
2021/01/23 00:08:46;;;;;;;21.50;8.67;;;5.50;99.90;;;;;;4976434;28;20237;-92
2021/01/23 00:11:11;;;;;;;22.87;9.03;;;5.50;99.90;;;;;;4978810;28;20268;-91
2021/01/23 00:13:39;;;;;;;11.40;7.97;;;5.50;99.90;;;;;;4980989;28;20202;-92
2021/01/23 00:16:05;;;;;;;19.23;8.83;;;5.50;99.90;;;;;;4997034;28;20186;-92
2021/01/23 00:18:31;;;;;;;12.13;8.27;;;5.50;99.90;;;;;;4984419;28;20198;-92
2021/01/23 00:20:57;;;;;;;12.50;8.77;;;5.50;99.90;;;;;;4999226;28;20205;-92
2021/01/23 00:23:22;;;;;;;14.10;8.27;;;5.50;99.90;;;;;;4984834;28;20199;-93
2021/01/23 00:25:48;;;;;;;13.07;8.03;;;5.50;99.90;;;;;;4988375;28;20584;-90
2021/01/23 00:28:15;;;;;;;15.73;8.10;;;5.50;99.90;;;;;;4983492;28;20185;-91
2021/01/23 00:30:41;;;;;;;14.17;8.50;;;5.50;99.90;;;;;;4979770;28;20216;-92
2021/01/23 00:33:07;;;;;;;13.63;7.73;;;5.50;99.90;;;;;;4990736;28;20205;-92
2021/01/23 00:35:34;;;;;;;10.47;7.37;;;5.50;99.90;;;;;;5000669;28;20208;-91
2021/01/23 00:37:59;;;;;;;14.43;7.57;;;5.50;99.90;;;;;;4999967;28;20186;-91
2021/01/23 00:40:27;;;;;;;11.10;7.47;;;5.50;99.90;;;;;;4999376;28;20197;-91
2021/01/23 00:42:53;;;;;;;13.67;7.53;;;5.60;99.90;;;;;;5000332;28;20178;-91
2021/01/23 00:45:19;;;;;;;12.90;7.50;;;5.50;99.90;;;;;;4999904;28;20236;-91
2021/01/23 00:47:44;;;;;;;18.27;7.07;;;5.50;99.90;;;;;;4998376;28;20178;-91
2021/01/23 00:50:14;;;;;;;14.37;7.07;;;5.50;99.90;;;;;;4999024;28;20177;-91
2021/01/23 00:52:40;;;;;;;11.30;7.10;;;5.50;99.90;;;;;;5001447;28;20642;-90
2021/01/23 00:55:06;;;;;;;15.47;7.60;;;5.40;99.90;;;;;;5001398;28;20224;-90
2021/01/23 00:57:35;;;;;;;15.10;6.70;;;5.30;99.90;;;;;;4997313;28;20220;-91
2021/01/23 01:00:01;;;;;;;15.57;7.53;;;5.30;99.90;;;;;;4997429;28;20213;-90
2021/01/23 01:02:26;;;;;;;15.47;7.30;;;5.30;99.90;;;;;;4999705;28;20180;-92
2021/01/23 01:04:54;;;;;;;12.83;6.97;;;5.30;99.90;;;;;;4999826;28;20272;-91
2021/01/23 01:07:23;;;;;;;16.23;7.70;;;5.30;99.90;;;;;;4995765;28;20182;-91
2021/01/23 01:09:49;;;;;;;11.03;6.83;;;5.30;99.90;;;;;;4979057;28;20221;-92
2021/01/23 01:12:15;;;;;;;18.13;7.37;;;5.40;99.90;;;;;;4978863;28;20182;-91
2021/01/23 01:14:41;;;;;;;22.03;8.17;;;5.50;99.90;;;;;;4977840;28;20216;-91
2021/01/23 01:17:06;;;;;;;17.50;7.00;;;5.50;99.90;;;;;;4982455;28;20185;-92
2021/01/23 01:19:32;;;;;;;18.03;7.83;;;5.60;99.90;;;;;;5012384;28;20186;-90
2021/01/23 01:22:01;;;;;;;12.73;7.27;;;5.60;99.90;;;;;;5016356;28;20174;-91
2021/01/23 01:24:27;;;;;;;15.30;7.60;;;5.50;99.90;;;;;;5059951;23;20238;-92
2021/01/23 01:26:52;;;;;;;11.83;7.50;;;5.50;99.90;;;;;;4979642;28;20237;-89
2021/01/23 01:29:18;;;;;;;13.87;7.23;;;5.50;99.90;;;;;;4992754;28;20182;-92
2021/01/23 01:31:47;;;;;;;20.43;8.00;;;5.60;99.90;;;;;;4967629;28;20194;-91
2021/01/23 01:34:12;;;;;;;13.80;7.90;;;5.50;99.90;;;;;;4988202;28;20233;-92
2021/01/23 01:36:39;;;;;;;20.17;8.10;;;5.60;99.90;;;;;;4969668;28;20202;-92
2021/01/23 01:39:04;;;;;;;13.07;6.83;;;5.60;99.90;;;;;;4996329;28;20169;-92
2021/01/23 01:41:30;;;;;;;11.17;7.00;;;5.60;99.90;;;;;;4993465;28;20182;-92
2021/01/23 01:43:56;;;;;;;14.07;7.13;;;5.70;99.90;;;;;;4978753;28;20273;-90
2021/01/23 01:46:21;;;;;;;25.27;7.67;;;5.70;99.90;;;;;;4979836;28;20190;-92
2021/01/23 01:48:49;;;;;;;15.10;7.10;;;5.80;99.90;;;;;;4976886;28;20181;-90
2021/01/23 01:51:17;;;;;;;14.67;8.03;;;5.70;99.90;;;;;;4998634;28;20177;-92
2021/01/23 01:53:44;;;;;;;14.77;7.30;;;5.80;99.90;;;;;;4979200;28;20222;-91
2021/01/23 01:56:10;;;;;;;16.87;6.80;;;5.70;99.90;;;;;;4979547;28;20178;-90
2021/01/23 01:58:35;;;;;;;12.77;6.70;;;5.60;99.90;;;;;;4975613;28;20257;-91
2021/01/23 02:01:03;;;;;;;10.57;6.67;;;5.60;99.90;;;;;;4976604;28;20273;-90
2021/01/23 02:03:46;;;;;;;19.83;7.10;;;5.70;99.90;;;;;;4984262;28;20710;-90
2021/01/23 02:06:41;;;;;;;15.47;7.23;;;5.80;99.90;;;;;;4960423;28;20174;-90
2021/01/23 02:09:44;;;;;;;12.50;6.80;;;5.80;99.90;;;;;;4931372;28;20214;-91
2021/01/23 02:12:30;;;;;;;13.27;6.40;;;5.80;99.90;;;;;;4990085;28;20189;-90
2021/01/23 02:15:12;;;;;;;11.27;5.77;;;5.60;99.90;;;;;;4979105;28;20217;-91
2021/01/23 02:17:58;;;;;;;9.80;6.47;;;5.60;99.90;;;;;;4977611;28;20202;-90
2021/01/23 02:20:40;;;;;;;11.90;5.67;;;5.50;99.90;;;;;;4975743;28;20182;-91
2021/01/23 02:23:11;;;;;;;8.50;5.93;;;5.50;99.90;;;;;;4977459;28;20201;-91
2021/01/23 02:26:01;;;;;;;13.13;6.30;;;5.50;99.90;;;;;;4977928;28;20209;-90
2021/01/23 02:29:03;;;;;;;8.33;5.20;;;5.50;99.90;;;;;;4978131;28;20241;-91
2021/01/23 02:31:34;;;;;;;12.00;5.97;;;5.60;99.90;;;;;;4982804;28;20182;-92
2021/01/23 02:34:01;;;;;;;11.30;5.30;;;5.60;99.90;;;;;;4976525;28;20210;-92
2021/01/23 02:36:28;;;;;;;21.63;6.20;;;5.50;99.90;;;;;;4976489;28;20265;-90
2021/01/23 02:38:55;;;;;;;11.17;5.63;;;5.60;99.90;;;;;;4978061;28;20178;-91
2021/01/23 02:41:21;;;;;;;8.67;4.67;;;5.50;99.90;;;;;;4978401;28;20178;-90
2021/01/23 02:43:47;;;;;;;17.63;5.93;;;5.50;99.90;;;;;;4957921;28;20194;-92
2021/01/23 02:46:15;;;;;;;15.90;5.23;;;5.50;99.90;;;;;;4958392;29;20179;-89
2021/01/23 02:48:42;;;;;;;11.73;5.27;;;5.50;99.90;;;;;;4957803;29;20194;-92
2021/01/23 02:51:26;;;;;;;6.77;5.10;;;5.40;99.90;;;;;;4964864;28;20199;-91
2021/01/23 02:53:56;;;;;;;8.83;5.67;;;5.40;99.90;;;;;;4960878;28;20423;-89
2021/01/23 02:56:24;;;;;;;10.43;5.63;;;5.30;99.90;;;;;;4975847;28;20588;-92
2021/01/23 02:58:52;;;;;;;6.83;5.20;;;5.30;99.90;;;;;;4975485;28;20257;-91
2021/01/23 03:01:25;;;;;;;7.90;5.23;;;5.20;99.90;;;;;;4977415;28;20224;-91
2021/01/23 03:03:55;;;;;;;9.07;4.97;;;5.20;99.90;;;;;;4976597;28;20232;-90
2021/01/23 03:06:22;;;;;;;13.03;5.73;;;5.20;99.90;;;;;;4975823;28;20202;-91
2021/01/23 03:08:48;;;;;;;13.57;5.27;;;5.20;99.90;;;;;;4977265;28;20273;-91
2021/01/23 03:11:14;;;;;;;7.17;5.17;;;5.30;99.90;;;;;;4981205;28;20627;-91
2021/01/23 03:13:40;;;;;;;6.00;5.43;;;5.50;99.90;;;;;;4975911;28;20308;-92
2021/01/23 03:16:06;;;;;;;10.63;5.83;;;5.60;99.90;;;;;;4975148;28;20198;-91
2021/01/23 03:18:31;;;;;;;8.77;5.07;;;5.70;99.90;;;;;;4974771;28;20190;-91
2021/01/23 03:20:57;;;;;;;10.53;5.17;;;5.70;99.90;;;;;;4976212;28;20266;-89
2021/01/23 03:23:23;;;;;;;14.63;6.03;;;5.50;99.90;;;;;;4976883;28;20189;-90
2021/01/23 03:25:50;;;;;;;11.87;5.50;;;5.50;99.90;;;;;;4975917;28;20198;-91
2021/01/23 03:28:16;;;;;;;16.07;5.20;;;5.50;99.90;;;;;;4977685;28;20182;-91
2021/01/23 03:30:42;;;;;;;7.33;5.30;;;5.50;99.90;;;;;;4985353;28;20241;-89
2021/01/23 03:33:08;;;;;;;11.97;5.37;;;5.30;99.90;;;;;;4975841;28;20242;-92
2021/01/23 03:35:33;;;;;;;8.83;5.07;;;5.30;99.90;;;;;;4979547;28;20270;-91
2021/01/23 03:37:59;;;;;;;13.93;5.50;;;5.20;99.90;;;;;;4979558;28;20269;-91
2021/01/23 03:40:25;;;;;;;14.60;6.63;;;5.10;99.90;;;;;;4978131;28;20181;-91
2021/01/23 03:42:50;;;;;;;8.77;6.10;;;5.10;99.90;;;;;;4978863;28;20174;-89
2021/01/23 03:45:16;;;;;;;15.37;5.50;;;5.00;99.90;;;;;;4994511;28;20616;-90
2021/01/23 03:47:42;;;;;;;11.63;6.37;;;5.00;99.90;;;;;;5011739;28;20186;-91
2021/01/23 03:50:13;;;;;;;16.30;7.63;;;5.00;99.90;;;;;;5000194;28;20190;-90
2021/01/23 03:52:41;;;;;;;9.70;6.63;;;4.90;99.90;;;;;;5000484;28;20222;-91
2021/01/23 03:55:08;;;;;;;27.10;6.60;;;5.00;99.90;;;;;;4981689;28;20214;-92
2021/01/23 03:57:34;;;;;;;10.23;6.90;;;5.00;99.90;;;;;;4980298;28;20190;-92
2021/01/23 04:00:03;;;;;;;14.67;6.83;;;4.90;99.90;;;;;;4981004;28;20182;-91
2021/01/23 04:02:28;;;;;;;10.17;7.20;;;4.90;99.90;;;;;;4980404;28;20185;-91
2021/01/23 04:04:54;;;;;;;15.43;7.87;;;4.90;99.90;;;;;;4987325;28;20186;-91
2021/01/23 04:07:20;;;;;;;14.87;6.30;;;4.80;99.90;;;;;;4998407;28;20178;-90
2021/01/23 04:09:46;;;;;;;7.50;5.70;;;4.80;99.90;;;;;;4994694;28;20181;-90
2021/01/23 04:12:12;;;;;;;6.87;5.83;;;4.80;99.90;;;;;;4979603;28;20174;-90
2021/01/23 04:14:38;;;;;;;12.37;6.40;;;4.80;99.90;;;;;;4977859;28;20694;-91
2021/01/23 04:17:03;;;;;;;12.77;5.50;;;4.80;99.90;;;;;;4977965;28;20198;-91
2021/01/23 04:19:31;;;;;;;6.40;5.27;;;4.80;99.90;;;;;;4977810;28;20189;-90
2021/01/23 04:21:57;;;;;;;15.93;6.47;;;4.80;99.90;;;;;;4977660;28;20178;-90
2021/01/23 04:24:22;;;;;;;16.67;7.47;;;4.70;99.90;;;;;;4977396;28;20293;-90
2021/01/23 04:26:48;;;;;;;18.67;7.53;;;4.70;99.90;;;;;;4977909;28;20233;-90
2021/01/23 04:29:13;;;;;;;20.40;8.37;;;4.80;99.90;;;;;;4982069;28;20186;-90
2021/01/23 04:31:39;;;;;;;19.53;8.10;;;4.80;99.90;;;;;;4982139;28;20190;-90
2021/01/23 04:34:05;;;;;;;22.67;8.13;;;4.70;99.90;;;;;;4982152;28;20671;-90
2021/01/23 04:36:31;;;;;;;25.63;8.70;;;4.70;99.90;;;;;;4983353;28;20194;-90
2021/01/23 04:38:57;;;;;;;23.23;10.20;;;4.70;99.90;;;;;;4991235;28;20166;-90
2021/01/23 04:41:23;;;;;;;24.77;9.47;;;4.70;99.90;;;;;;5000163;28;20196;-91
2021/01/23 04:43:51;;;;;;;28.73;10.50;;;4.60;99.90;;;;;;5000685;28;20170;-91
2021/01/23 04:46:18;;;;;;;33.27;11.13;;;4.70;99.90;;;;;;5001112;28;20173;-89
2021/01/23 04:48:44;;;;;;;24.03;10.27;;;4.70;99.90;;;;;;4993018;28;20241;-89
2021/01/23 04:51:10;;;;;;;23.53;10.87;;;4.80;99.90;;;;;;4982115;28;20273;-90
2021/01/23 04:53:36;;;;;;;32.30;9.93;;;4.80;99.90;;;;;;4980859;28;20241;-89
2021/01/23 04:56:06;;;;;;;21.60;9.90;;;4.80;99.90;;;;;;4994442;28;20182;-90
2021/01/23 04:58:32;;;;;;;30.90;10.57;;;4.80;99.90;;;;;;4977836;28;20590;-89
2021/01/23 05:00:57;;;;;;;30.67;11.03;;;4.70;99.90;;;;;;4977521;28;20202;-90
2021/01/23 05:03:23;;;;;;;24.50;9.80;;;4.70;99.90;;;;;;4977297;28;20249;-90
2021/01/23 05:06:11;;;;;;;24.00;11.07;;;4.60;99.90;;;;;;4993479;28;20273;-90
2021/01/23 05:08:38;;;;;;;21.97;9.70;;;4.60;99.90;;;;;;4961967;28;20182;-90
2021/01/23 05:11:04;;;;;;;24.10;9.80;;;4.60;99.90;;;;;;4978070;28;20186;-90
2021/01/23 05:13:30;;;;;;;26.40;9.27;;;4.60;99.90;;;;;;4977048;28;20221;-90
2021/01/23 05:15:58;;;;;;;25.70;9.73;;;4.70;99.90;;;;;;4960933;28;20190;-90
2021/01/23 05:18:24;;;;;;;17.23;9.43;;;4.70;99.90;;;;;;4976663;28;20202;-90
2021/01/23 05:20:52;;;;;;;32.43;9.67;;;4.70;99.90;;;;;;4977528;28;20216;-89
2021/01/23 05:23:23;;;;;;;24.97;10.03;;;4.50;99.90;;;;;;4976522;28;20193;-90
2021/01/23 05:25:51;;;;;;;23.63;8.60;;;4.50;99.90;;;;;;4976525;28;20524;-91
2021/01/23 05:28:32;;;;;;;22.57;9.63;;;4.40;99.90;;;;;;4976715;28;20174;-91
2021/01/23 05:30:58;;;;;;;28.10;10.10;;;4.40;99.90;;;;;;4977704;28;20579;-90
2021/01/23 05:33:36;;;;;;;25.07;9.80;;;4.40;99.90;;;;;;4976148;28;20213;-91
2021/01/23 05:36:06;;;;;;;27.83;11.40;;;4.40;99.90;;;;;;4976408;28;20225;-90
2021/01/23 05:38:39;;;;;;;26.27;10.43;;;4.30;99.90;;;;;;4992536;28;20604;-91
2021/01/23 05:41:08;;;;;;;27.07;10.37;;;4.20;99.90;;;;;;4977719;28;20177;-90
2021/01/23 05:43:43;;;;;;;23.00;10.83;;;4.20;99.90;;;;;;4977681;28;20181;-91
2021/01/23 05:46:10;;;;;;;24.70;10.27;;;4.20;99.90;;;;;;4992754;28;20661;-91
2021/01/23 05:48:40;;;;;;;36.10;10.77;;;4.20;99.90;;;;;;4992111;28;20190;-90
2021/01/23 05:51:06;;;;;;;26.10;9.43;;;4.20;99.90;;;;;;4976056;28;20209;-91
2021/01/23 05:53:31;;;;;;;29.60;10.10;;;4.10;99.90;;;;;;4976131;28;20217;-91
2021/01/23 05:56:01;;;;;;;27.20;10.73;;;4.10;99.90;;;;;;4975563;28;20654;-91
2021/01/23 05:58:31;;;;;;;25.63;9.57;;;4.20;99.90;;;;;;4975687;28;20202;-91
2021/01/23 06:00:59;;;;;;;22.33;10.17;;;4.20;99.90;;;;;;4975674;28;20182;-90
2021/01/23 06:03:40;;;;;;;28.93;11.57;;;4.10;99.90;;;;;;4977068;28;20186;-91
2021/01/23 06:06:06;;;;;;;20.60;9.90;;;4.30;99.90;;;;;;4975786;28;20208;-91
2021/01/23 06:08:36;;;;;;;24.77;10.10;;;4.20;99.90;;;;;;4976825;28;20265;-91
2021/01/23 06:11:02;;;;;;;35.47;10.47;;;4.30;99.90;;;;;;4992236;28;20193;-91
2021/01/23 06:13:39;;;;;;;22.77;9.27;;;4.40;99.90;;;;;;4975597;28;20206;-91
2021/01/23 06:16:06;;;;;;;28.27;10.43;;;4.40;99.90;;;;;;4994373;28;20193;-91
2021/01/23 06:18:32;;;;;;;30.33;11.27;;;4.50;99.90;;;;;;4997693;28;20189;-90
2021/01/23 06:21:02;;;;;;;28.13;10.87;;;4.50;99.90;;;;;;4983004;28;20166;-90
2021/01/23 06:23:51;;;;;;;34.23;11.83;;;4.40;99.90;;;;;;4963683;28;20658;-90
2021/01/23 06:26:18;;;;;;;39.33;11.83;;;4.60;99.90;;;;;;4958475;29;20182;-90
2021/01/23 06:28:43;;;;;;;33.97;11.37;;;4.60;99.90;;;;;;4962724;29;20202;-89
2021/01/23 06:31:29;;;;;;;29.13;11.70;;;4.60;99.90;;;;;;4960006;29;20247;-91
2021/01/23 06:33:55;;;;;;;31.13;11.50;;;4.70;99.90;;;;;;4973416;29;20206;-91
2021/01/23 06:36:22;;;;;;;32.77;11.50;;;4.80;99.90;;;;;;4976755;29;20167;-91
2021/01/23 06:39:11;;;;;;;28.50;9.93;;;4.80;99.90;;;;;;4968373;29;20182;-91
2021/01/23 06:41:38;;;;;;;27.33;9.70;;;4.80;99.90;;;;;;4972713;28;20171;-91
2021/01/23 06:44:07;;;;;;;24.80;9.57;;;4.60;99.90;;;;;;4958230;29;20245;-90
2021/01/23 06:46:41;;;;;;;17.67;8.43;;;4.60;99.90;;;;;;4983357;28;20218;-91
2021/01/23 06:49:10;;;;;;;19.37;8.37;;;4.50;99.90;;;;;;4970859;28;20210;-91
2021/01/23 06:51:35;;;;;;;19.33;8.40;;;4.50;99.90;;;;;;4970985;29;20174;-91
2021/01/23 06:54:18;;;;;;;24.17;8.97;;;4.50;99.90;;;;;;4974436;28;20213;-92
2021/01/23 06:56:55;;;;;;;19.63;8.57;;;4.40;99.90;;;;;;4982849;28;20200;-90
2021/01/23 06:59:28;;;;;;;28.03;9.30;;;4.40;99.90;;;;;;4998861;28;20177;-92
2021/01/23 07:02:25;;;;;;;22.93;8.20;;;4.30;99.90;;;;;;4998382;28;20170;-91
2021/01/23 07:04:52;;;;;;;21.30;8.50;;;4.30;99.90;;;;;;4998056;28;20186;-91
2021/01/23 07:07:18;;;;;;;18.43;8.13;;;4.20;99.90;;;;;;4982930;28;20193;-92
2021/01/23 07:09:50;;;;;;;21.90;8.20;;;4.20;99.90;;;;;;4980357;28;20177;-90
2021/01/23 07:12:41;;;;;;;23.57;9.63;;;4.20;99.90;;;;;;4995905;28;20247;-91
2021/01/23 07:15:22;;;;;;;24.23;9.17;;;4.10;99.90;;;;;;4995491;28;20790;-92
2021/01/23 07:17:49;;;;;;;31.03;9.13;;;4.10;99.90;;;;;;5000248;28;20182;-89
2021/01/23 07:20:17;;;;;;;29.50;9.13;;;4.10;99.90;;;;;;4980576;28;20252;-91
2021/01/23 07:22:44;;;;;;;23.70;8.67;;;4.10;99.90;;;;;;5001682;28;20194;-91
2021/01/23 07:25:15;;;;;;;25.00;8.03;;;4.10;99.90;;;;;;5001528;28;20205;-91
2021/01/23 07:27:43;;;;;;;16.23;7.93;;;4.10;99.90;;;;;;4981630;28;20210;-91
2021/01/23 07:30:10;;;;;;;27.40;8.37;;;4.10;99.90;;;;;;4981480;28;20553;-91
2021/01/23 07:32:40;;;;;;;20.27;8.00;;;4.10;99.90;;;;;;4961052;29;20222;-91
2021/01/23 07:35:06;;;;;;;25.97;8.57;;;4.10;99.90;;;;;;4961405;29;20209;-90
2021/01/23 07:37:50;;;;;;;29.90;9.53;;;4.20;99.90;;;;;;4962496;28;20237;-91
2021/01/23 07:40:23;;;;;;;23.07;9.03;;;4.20;99.90;;;;;;4977681;28;20179;-92
2021/01/23 07:42:55;;;;;;;26.03;9.13;;;4.30;99.90;;;;;;4977101;28;20548;-91
2021/01/23 07:45:21;;;;;;;24.20;8.97;;;4.50;99.90;;;;;;4980509;28;20272;-91
2021/01/23 07:48:00;;;;;;;19.37;8.70;;;4.60;99.90;;;;;;4981127;28;20217;-91
2021/01/23 07:50:35;;;;;;;24.77;9.60;;;4.60;99.90;;;;;;4980787;28;20183;-90
2021/01/23 07:53:19;;;;;;;15.10;8.77;;;4.60;99.90;;;;;;4981564;28;20212;-90
2021/01/23 07:55:46;;;;;;;16.77;8.80;;;4.70;99.90;;;;;;4981849;28;20269;-91
2021/01/23 07:58:13;;;;;;;21.07;9.17;;;4.80;99.90;;;;;;4978996;28;20181;-90
2021/01/23 08:00:39;;;;;;;19.67;8.30;;;4.90;99.90;;;;;;4980734;28;20178;-90
2021/01/23 08:03:06;;;;;;;22.47;8.47;;;5.10;99.90;;;;;;4997137;28;20193;-91
2021/01/23 08:05:48;;;;;;;22.07;8.57;;;5.30;99.90;;;;;;4983542;28;20583;-91
2021/01/23 08:08:36;;;;;;;15.70;7.57;;;5.50;99.90;;;;;;4980728;28;20186;-90
2021/01/23 08:11:04;;;;;;;21.20;7.93;;;5.90;99.90;;;;;;4979931;28;20181;-92
2021/01/23 08:13:32;;;;;;;10.40;6.63;;;6.20;99.90;;;;;;4979078;28;20329;-92
2021/01/23 08:16:11;;;;;;;7.80;5.87;;;6.30;99.90;;;;;;4979551;28;20182;-90
2021/01/23 08:18:37;;;;;;;11.73;6.60;;;6.50;99.90;;;;;;4982349;28;20192;-90
2021/01/23 08:21:16;;;;;;;10.10;6.30;;;6.50;99.90;;;;;;4978370;28;20193;-90
2021/01/23 08:23:42;;;;;;;14.03;6.70;;;6.40;99.90;;;;;;4978795;28;20770;-90
2021/01/23 08:26:08;;;;;;;14.70;7.03;;;6.70;99.90;;;;;;4979465;28;20218;-91
2021/01/23 08:28:35;;;;;;;11.87;6.20;;;6.80;99.90;;;;;;4979772;28;20186;-92
2021/01/23 08:31:24;;;;;;;9.80;6.30;;;6.80;99.90;;;;;;4981048;28;20178;-91
2021/01/23 08:33:55;;;;;;;9.03;5.97;;;7.10;99.90;;;;;;4999444;28;20206;-90
2021/01/23 08:36:30;;;;;;;14.27;6.43;;;7.40;99.90;;;;;;4987078;28;20178;-90
2021/01/23 08:39:04;;;;;;;11.57;6.23;;;7.70;99.90;;;;;;4996723;28;20181;-91
2021/01/23 08:41:31;;;;;;;16.57;5.87;;;8.10;99.90;;;;;;4983877;28;20173;-91
2021/01/23 08:43:57;;;;;;;13.43;5.47;;;8.70;99.90;;;;;;4997280;28;20201;-91
2021/01/23 08:46:23;;;;;;;10.30;5.57;;;8.90;99.90;;;;;;4999182;28;20189;-90
2021/01/23 08:48:51;;;;;;;12.97;5.27;;;9.00;99.90;;;;;;4993060;28;20181;-91
2021/01/23 08:51:17;;;;;;;14.00;5.97;;;9.60;99.90;;;;;;4978765;28;20197;-91
2021/01/23 08:53:42;;;;;;;7.70;5.00;;;10.20;99.90;;;;;;4978899;28;20261;-91
2021/01/23 08:56:11;;;;;;;18.93;6.07;;;10.30;99.90;;;;;;4996025;28;20190;-91
2021/01/23 08:58:37;;;;;;;7.78;5.10;;;10.00;99.90;;;;;;4994681;28;20194;-92
2021/01/23 09:01:03;;;;;;;9.13;5.13;;;9.50;99.90;;;;;;4993190;28;20182;-91
2021/01/23 09:03:29;;;;;;;15.57;6.00;;;9.20;99.90;;;;;;4994245;28;20581;-92
2021/01/23 09:05:55;;;;;;;10.93;5.90;;;8.90;99.90;;;;;;4985600;28;20266;-91
2021/01/23 09:08:20;;;;;;;10.53;5.17;;;8.50;99.90;;;;;;4978282;28;20210;-91
2021/01/23 09:10:46;;;;;;;10.07;5.13;;;8.30;99.90;;;;;;4978005;28;20178;-90
2021/01/23 09:13:12;;;;;;;9.93;5.63;;;8.00;99.90;;;;;;4977978;28;20653;-90
2021/01/23 09:15:38;;;;;;;10.93;5.83;;;7.70;99.90;;;;;;4977415;28;20276;-91
2021/01/23 09:18:04;;;;;;;18.87;6.07;;;7.60;99.90;;;;;;4977445;28;20277;-91
2021/01/23 09:20:30;;;;;;;7.83;5.43;;;7.80;99.90;;;;;;4977463;28;20182;-90
2021/01/23 09:22:55;;;;;;;6.93;5.33;;;8.10;99.90;;;;;;4976980;28;20197;-91
2021/01/23 09:25:21;;;;;;;15.07;6.30;;;8.30;99.90;;;;;;4977792;28;20197;-91
2021/01/23 09:27:47;;;;;;;10.80;5.60;;;8.40;99.90;;;;;;4979835;28;20181;-92
2021/01/23 09:30:14;;;;;;;7.77;5.70;;;8.50;99.90;;;;;;4980040;28;20294;-91
2021/01/23 09:32:41;;;;;;;8.27;5.80;;;8.70;99.90;;;;;;4978427;28;20198;-91
2021/01/23 09:35:08;;;;;;;13.60;5.27;;;8.80;99.90;;;;;;4973921;28;20210;-91
2021/01/23 09:37:34;;;;;;;12.90;6.33;;;8.90;99.90;;;;;;4977430;28;20244;-91
2021/01/23 09:40:01;;;;;;;11.00;5.60;;;9.00;99.90;;;;;;4977303;28;20174;-91
2021/01/23 09:42:27;;;;;;;15.13;5.90;;;9.00;99.90;;;;;;4977939;28;20182;-92
2021/01/23 09:44:53;;;;;;;11.80;5.68;;;9.00;99.90;;;;;;4989732;28;20190;-91
2021/01/23 09:47:18;;;;;;;18.10;5.70;;;8.90;99.90;;;;;;4965186;28;20631;-90
2021/01/23 09:49:44;;;;;;;10.27;6.00;;;9.00;99.90;;;;;;4976375;28;20174;-90
2021/01/23 09:52:10;;;;;;;9.27;5.03;;;9.00;99.90;;;;;;4960911;28;20577;-91
2021/01/23 09:54:36;;;;;;;12.50;5.20;;;9.10;99.90;;;;;;4976406;28;20221;-92
2021/01/23 09:57:02;;;;;;;12.10;5.00;;;9.00;99.90;;;;;;4976799;28;20185;-90
2021/01/23 09:59:28;;;;;;;7.27;4.87;;;8.80;99.90;;;;;;4976455;28;20186;-90
2021/01/23 10:01:54;;;;;;;10.20;5.10;;;8.80;99.90;;;;;;4977732;28;20185;-90
2021/01/23 10:04:20;;;;;;;10.83;5.30;;;8.70;99.90;;;;;;4978828;28;20190;-90
2021/01/23 10:06:45;;;;;;;9.07;4.83;;;8.70;99.90;;;;;;4977137;28;20189;-90
2021/01/23 10:09:11;;;;;;;14.17;5.17;;;8.90;99.90;;;;;;4977119;28;20178;-90
2021/01/23 10:11:36;;;;;;;18.07;6.10;;;9.30;99.90;;;;;;4975845;28;20197;-92
2021/01/23 10:14:02;;;;;;;6.93;4.70;;;9.50;99.90;;;;;;4959862;28;20213;-91
2021/01/23 10:16:28;;;;;;;9.88;4.78;;;9.90;99.90;;;;;;4975789;28;20244;-92
2021/01/23 10:18:53;;;;;;;11.45;3.95;;;10.20;99.90;;;;;;4976277;28;20199;-91
2021/01/23 10:21:19;;;;;;;9.65;3.70;;;10.10;99.90;;;;;;4976965;28;20183;-92
2021/01/23 10:23:47;;;;;;;14.02;4.68;;;9.60;99.90;;;;;;4976342;28;20194;-91
2021/01/23 10:26:13;;;;;;;14.50;4.65;;;9.20;99.90;;;;;;4976626;28;20241;-91
2021/01/23 10:28:38;;;;;;;11.60;4.47;;;9.10;99.90;;;;;;4976346;28;20178;-91
2021/01/23 10:31:04;;;;;;;9.33;4.10;;;9.50;99.90;;;;;;4975994;28;20249;-92
2021/01/23 10:33:30;;;;;;;7.00;4.00;;;9.90;99.90;;;;;;4992366;28;20209;-91
2021/01/23 10:35:55;;;;;;;8.60;4.60;;;10.10;99.90;;;;;;4984147;28;20186;-91
2021/01/23 10:38:21;;;;;;;11.80;4.57;;;10.00;99.90;;;;;;4983351;28;20533;-90
2021/01/23 10:40:47;;;;;;;15.40;4.82;;;9.90;99.90;;;;;;4976306;28;20203;-92
2021/01/23 10:43:13;;;;;;;8.38;4.10;;;9.70;99.90;;;;;;4978368;28;20601;-91
2021/01/23 10:45:38;;;;;;;18.75;4.03;;;9.80;99.90;;;;;;4977795;28;20190;-91
2021/01/23 10:48:08;;;;;;;9.80;4.20;;;9.80;99.90;;;;;;4976622;28;20268;-92
2021/01/23 10:50:34;;;;;;;8.65;4.28;;;10.10;99.90;;;;;;4976696;28;20186;-92
2021/01/23 10:53:00;;;;;;;12.45;3.97;;;10.30;99.90;;;;;;4977529;28;20186;-92
2021/01/23 10:55:25;;;;;;;14.55;4.40;;;10.40;99.90;;;;;;4993689;28;20692;-91
2021/01/23 10:57:52;;;;;;;8.23;3.67;;;10.40;99.90;;;;;;4977190;28;20240;-90
2021/01/23 11:00:18;;;;;;;14.38;4.13;;;10.10;99.90;;;;;;4977749;28;20618;-91
2021/01/23 11:02:44;;;;;;;8.13;4.37;;;9.70;99.90;;;;;;4988533;28;20188;-92
2021/01/23 11:05:10;;;;;;;8.40;4.25;;;9.50;99.90;;;;;;4982981;28;20269;-92
2021/01/23 11:07:36;;;;;;;9.05;3.50;;;9.40;99.90;;;;;;4977978;28;20177;-92
2021/01/23 11:10:02;;;;;;;21.07;4.40;;;9.40;99.90;;;;;;4988740;28;20165;-92
2021/01/23 11:12:27;;;;;;;13.98;3.72;;;9.50;99.90;;;;;;4993558;28;20198;-92
2021/01/23 11:14:53;;;;;;;16.23;4.28;;;9.70;99.90;;;;;;4992120;28;20272;-91
2021/01/23 11:17:19;;;;;;;6.47;2.97;;;10.10;99.90;;;;;;4976873;28;20243;-92
2021/01/23 11:19:44;;;;;;;10.82;3.22;;;10.20;99.90;;;;;;4976888;28;20323;-91
2021/01/23 11:22:10;;;;;;;6.43;2.90;;;9.90;99.90;;;;;;4976036;28;20268;-93
2021/01/23 11:24:36;;;;;;;13.70;3.15;;;9.90;99.90;;;;;;4975719;28;20670;-92
2021/01/23 11:27:01;;;;;;;9.45;2.88;;;9.70;99.90;;;;;;4982144;28;20214;-92
2021/01/23 11:29:27;;;;;;;14.23;3.42;;;9.60;99.90;;;;;;4993156;28;20178;-92
2021/01/23 11:31:53;;;;;;;8.77;2.72;;;9.60;99.90;;;;;;4984704;28;20194;-92
2021/01/23 11:34:18;;;;;;;11.52;3.30;;;9.50;99.90;;;;;;4975534;28;20301;-92
2021/01/23 11:36:44;;;;;;;12.07;2.80;;;9.40;99.90;;;;;;4958664;28;20210;-91
2021/01/23 11:39:10;;;;;;;5.88;3.08;;;9.40;99.90;;;;;;4975817;28;20237;-92
2021/01/23 11:41:35;;;;;;;9.68;3.08;;;9.50;99.90;;;;;;4975845;28;20299;-92
2021/01/23 11:44:01;;;;;;;10.38;3.20;;;9.70;99.90;;;;;;4974633;28;20888;-92
2021/01/23 11:46:27;;;;;;;9.30;3.15;;;9.70;99.90;;;;;;4974588;28;20186;-92
2021/01/23 11:48:53;;;;;;;6.70;3.15;;;9.60;99.90;;;;;;4974638;28;20194;-92
2021/01/23 11:51:18;;;;;;;7.45;2.58;;;9.40;99.90;;;;;;4974343;28;20662;-92
2021/01/23 11:53:44;;;;;;;7.20;2.65;;;9.20;99.90;;;;;;4975309;28;20218;-92
2021/01/23 11:56:10;;;;;;;12.15;2.50;;;9.20;99.90;;;;;;4974122;28;20190;-92
2021/01/23 11:58:36;;;;;;;9.05;2.47;;;9.00;99.90;;;;;;4990955;28;20195;-92
2021/01/23 12:01:01;;;;;;;8.57;2.57;;;8.90;99.90;;;;;;4974832;28;20174;-92
2021/01/23 12:03:27;;;;;;;6.20;2.47;;;8.80;99.90;;;;;;4991407;28;20193;-92
2021/01/23 12:05:56;;;;;;;20.47;2.80;;;8.90;99.90;;;;;;4974590;28;20619;-91
2021/01/23 12:08:21;;;;;;;10.07;3.60;;;8.70;99.90;;;;;;4977686;28;20190;-91
2021/01/23 12:10:47;;;;;;;10.45;2.80;;;8.80;99.90;;;;;;4994183;28;20650;-91
2021/01/23 12:13:13;;;;;;;6.65;2.58;;;8.70;99.90;;;;;;4988888;28;20177;-92
2021/01/23 12:15:38;;;;;;;8.75;3.00;;;8.60;99.90;;;;;;4982033;28;20273;-92
2021/01/23 12:18:04;;;;;;;14.13;3.10;;;8.60;99.90;;;;;;4978073;28;20587;-92
2021/01/23 12:20:30;;;;;;;10.03;2.90;;;8.70;99.90;;;;;;4977669;28;20186;-91
2021/01/23 12:22:56;;;;;;;8.65;3.05;;;8.70;99.90;;;;;;4977494;28;20303;-92
2021/01/23 12:25:22;;;;;;;8.40;2.73;;;8.60;99.90;;;;;;4977180;28;20201;-91
2021/01/23 12:27:47;;;;;;;11.70;3.10;;;8.50;99.90;;;;;;4977331;28;20640;-92
2021/01/23 12:30:18;;;;;;;10.63;3.03;;;8.50;99.90;;;;;;4977322;28;20190;-92
2021/01/23 12:32:44;;;;;;;7.83;2.43;;;8.50;99.90;;;;;;4993693;28;20181;-90
2021/01/23 12:35:11;;;;;;;6.57;2.97;;;8.60;99.90;;;;;;4977217;28;20205;-91
2021/01/23 12:37:41;;;;;;;11.80;3.33;;;8.60;99.90;;;;;;4992212;28;20241;-91
2021/01/23 12:40:08;;;;;;;11.90;2.70;;;8.70;99.90;;;;;;4977021;28;20196;-91
2021/01/23 12:42:34;;;;;;;8.17;3.03;;;8.80;99.90;;;;;;4977104;28;20205;-91
2021/01/23 12:45:00;;;;;;;14.55;3.50;;;9.00;99.90;;;;;;4960708;28;20311;-92
2021/01/23 12:47:28;;;;;;;9.57;3.53;;;9.10;99.90;;;;;;4976794;28;20249;-92
2021/01/23 12:49:54;;;;;;;8.38;2.92;;;9.20;99.90;;;;;;4978018;28;20182;-92
2021/01/23 12:52:20;;;;;;;13.35;2.78;;;9.30;99.90;;;;;;4976841;28;20180;-93
2021/01/23 12:54:46;;;;;;;9.90;2.75;;;9.40;99.90;;;;;;4977028;28;20217;-92